Time;durP1;ratioP1;P1;durP2;ratioP2;P2;SDS_P1;SDS_P2;PMS_P1;PMS_P2;Temp;Humidity;BMP_temperature;BMP_pressure;BME280_temperature;BME280_humidity;BME280_pressure;Samples;Min_cycle;Max_cycle;Signal;HPM_P1;HPM_P2
2021/07/11 00:02:01;;;;;;;3.88;3.58;;;19.00;99.90;;;;;;5081274;28;20209;-75
2021/07/11 00:04:29;;;;;;;4.32;3.90;;;18.90;99.90;;;;;;5090153;28;20210;-74
2021/07/11 00:06:56;;;;;;;4.35;3.90;;;18.90;99.90;;;;;;5090879;28;20201;-75
2021/07/11 00:09:23;;;;;;;5.40;4.47;;;18.90;99.90;;;;;;5090169;28;20231;-75
2021/07/11 00:11:50;;;;;;;3.60;3.30;;;18.90;99.90;;;;;;5083757;28;20248;-76
2021/07/11 00:14:17;;;;;;;4.72;4.28;;;18.90;99.90;;;;;;5083528;28;20235;-75
2021/07/11 00:16:44;;;;;;;5.45;4.25;;;18.90;99.90;;;;;;5090694;28;20229;-76
2021/07/11 00:19:12;;;;;;;7.50;3.70;;;19.00;99.90;;;;;;5090307;28;20267;-76
2021/07/11 00:21:40;;;;;;;5.65;4.90;;;18.90;99.90;;;;;;5090505;28;20197;-76
2021/07/11 00:24:07;;;;;;;4.43;4.03;;;18.90;99.90;;;;;;5090433;28;20247;-76
2021/07/11 00:26:34;;;;;;;3.53;3.22;;;18.90;99.90;;;;;;5090374;28;20205;-77
2021/07/11 00:29:01;;;;;;;4.55;3.75;;;18.90;99.90;;;;;;5090817;28;20217;-77
2021/07/11 00:31:28;;;;;;;4.65;3.72;;;18.90;99.90;;;;;;5090146;28;20212;-77
2021/07/11 00:33:55;;;;;;;4.95;4.38;;;18.80;99.90;;;;;;5090569;28;20664;-77
2021/07/11 00:36:22;;;;;;;5.03;3.88;;;18.70;99.90;;;;;;5089964;28;20233;-77
2021/07/11 00:38:50;;;;;;;5.60;4.70;;;18.70;99.90;;;;;;5090283;28;20653;-77
2021/07/11 00:41:17;;;;;;;4.97;4.50;;;18.70;99.90;;;;;;5090060;28;20606;-76
2021/07/11 00:43:44;;;;;;;4.72;4.20;;;18.70;99.90;;;;;;5090413;28;20270;-76
2021/07/11 00:46:11;;;;;;;5.28;4.78;;;18.60;99.90;;;;;;5089845;28;20565;-77
2021/07/11 00:48:38;;;;;;;4.57;4.18;;;18.60;99.90;;;;;;5090071;28;20673;-76
2021/07/11 00:51:05;;;;;;;5.95;3.67;;;18.60;99.90;;;;;;5090316;28;20209;-78
2021/07/11 00:53:33;;;;;;;6.80;4.68;;;18.60;99.90;;;;;;5090701;28;20725;-79
2021/07/11 00:56:01;;;;;;;5.25;4.80;;;18.60;99.90;;;;;;5076245;28;20237;-79
2021/07/11 00:58:28;;;;;;;5.63;4.43;;;18.50;99.90;;;;;;5089897;28;20213;-78
2021/07/11 01:00:58;;;;;;;5.53;4.30;;;18.50;99.90;;;;;;5090249;28;20266;-80
2021/07/11 01:03:29;;;;;;;5.72;4.82;;;18.40;99.90;;;;;;5089926;28;20213;-75
2021/07/11 01:05:57;;;;;;;5.10;4.68;;;18.50;99.90;;;;;;5090321;28;20205;-75
2021/07/11 01:08:36;;;;;;;5.15;4.63;;;18.50;99.90;;;;;;5089794;28;20209;-75
2021/07/11 01:11:07;;;;;;;7.03;4.40;;;18.50;99.90;;;;;;5090395;28;20206;-75
2021/07/11 01:13:37;;;;;;;4.97;4.57;;;18.40;99.90;;;;;;5090197;28;20739;-76
2021/07/11 01:16:10;;;;;;;6.40;5.30;;;18.40;99.90;;;;;;5090424;28;20257;-76
2021/07/11 01:18:39;;;;;;;5.20;4.65;;;18.50;99.90;;;;;;5063406;28;20219;-76
2021/07/11 01:21:09;;;;;;;5.90;4.68;;;18.40;99.90;;;;;;5089971;28;20202;-77
2021/07/11 01:23:42;;;;;;;5.55;5.05;;;18.40;99.90;;;;;;5089573;28;20627;-77
2021/07/11 01:26:12;;;;;;;4.55;4.18;;;18.40;99.90;;;;;;5089502;28;20209;-77
2021/07/11 01:28:40;;;;;;;4.60;4.05;;;18.30;99.90;;;;;;5090004;28;20259;-77
2021/07/11 01:31:08;;;;;;;6.03;5.53;;;18.30;99.90;;;;;;5089847;28;20266;-76
2021/07/11 01:33:38;;;;;;;5.78;5.28;;;18.30;99.90;;;;;;5075496;28;20198;-76
2021/07/11 01:36:05;;;;;;;5.47;4.95;;;18.30;99.90;;;;;;5089831;28;20643;-76
2021/07/11 01:38:34;;;;;;;8.02;5.28;;;18.20;99.90;;;;;;5087014;28;20750;-76
2021/07/11 01:41:03;;;;;;;7.07;6.05;;;18.20;99.90;;;;;;5080930;28;20213;-76
2021/07/11 01:43:32;;;;;;;5.32;4.82;;;18.10;99.90;;;;;;5093558;28;20210;-76
2021/07/11 01:46:00;;;;;;;6.38;5.78;;;18.10;99.90;;;;;;5093560;28;20529;-76
2021/07/11 01:48:27;;;;;;;5.90;5.40;;;18.20;99.90;;;;;;5093318;28;20209;-76
2021/07/11 01:50:56;;;;;;;5.15;4.75;;;18.20;99.90;;;;;;5093128;28;20224;-74
2021/07/11 01:53:24;;;;;;;4.85;4.35;;;18.10;99.90;;;;;;5092716;28;20209;-74
2021/07/11 01:55:52;;;;;;;5.72;5.18;;;18.10;99.90;;;;;;5093286;28;20328;-74
2021/07/11 01:58:20;;;;;;;6.03;5.03;;;18.00;99.90;;;;;;5093019;28;20201;-75
2021/07/11 02:00:49;;;;;;;5.30;4.30;;;18.00;99.90;;;;;;5093507;28;20270;-75
2021/07/11 02:03:18;;;;;;;6.53;5.38;;;18.00;99.90;;;;;;5092789;28;20209;-75
2021/07/11 02:05:46;;;;;;;4.93;4.43;;;18.00;99.90;;;;;;5093089;28;20259;-74
2021/07/11 02:08:13;;;;;;;5.60;5.03;;;17.90;99.90;;;;;;5092194;28;20661;-74
2021/07/11 02:10:41;;;;;;;5.95;5.40;;;17.90;99.90;;;;;;5093356;28;20620;-75
2021/07/11 02:13:13;;;;;;;5.97;5.22;;;17.80;99.90;;;;;;5092356;28;20665;-75
2021/07/11 02:15:45;;;;;;;6.13;5.20;;;17.90;99.90;;;;;;5092761;28;20229;-75
2021/07/11 02:18:16;;;;;;;6.70;5.82;;;17.90;99.90;;;;;;5092455;28;20206;-74
2021/07/11 02:20:47;;;;;;;5.75;5.25;;;17.80;99.90;;;;;;5093044;28;20201;-74
2021/07/11 02:23:15;;;;;;;5.95;5.18;;;17.70;99.90;;;;;;5092320;28;20221;-75
2021/07/11 02:25:45;;;;;;;6.10;5.10;;;17.60;99.90;;;;;;5092761;28;20643;-76
2021/07/11 02:28:13;;;;;;;5.85;5.18;;;17.60;99.90;;;;;;5092269;28;20237;-75
2021/07/11 02:30:42;;;;;;;6.30;5.65;;;17.70;99.90;;;;;;5092659;28;20268;-75
2021/07/11 02:33:13;;;;;;;8.68;6.13;;;17.60;99.90;;;;;;5092281;28;20209;-75
2021/07/11 02:35:44;;;;;;;7.30;5.88;;;17.70;99.90;;;;;;5092422;28;20696;-76
2021/07/11 02:38:12;;;;;;;6.90;5.22;;;17.70;99.90;;;;;;5091965;28;20197;-76
2021/07/11 02:40:40;;;;;;;7.38;5.60;;;17.70;99.90;;;;;;5092378;28;20619;-75
2021/07/11 02:43:09;;;;;;;13.77;4.95;;;17.60;99.90;;;;;;5091933;28;20210;-76
2021/07/11 02:45:37;;;;;;;7.78;5.47;;;17.70;99.90;;;;;;5080576;28;20214;-76
2021/07/11 02:48:07;;;;;;;5.97;5.38;;;17.70;99.90;;;;;;5071916;28;20253;-76
2021/07/11 02:50:35;;;;;;;7.32;5.50;;;17.60;99.90;;;;;;5071754;28;20214;-75
2021/07/11 02:53:04;;;;;;;5.75;5.20;;;17.60;99.90;;;;;;5072120;28;20244;-75
2021/07/11 02:55:35;;;;;;;6.03;5.10;;;17.60;99.90;;;;;;5072231;28;20284;-76
2021/07/11 02:58:07;;;;;;;7.68;5.90;;;17.60;99.90;;;;;;5072329;28;20210;-75
2021/07/11 03:00:35;;;;;;;6.20;5.70;;;17.50;99.90;;;;;;5071883;28;20214;-74
2021/07/11 03:03:04;;;;;;;6.15;5.28;;;17.40;99.90;;;;;;5072199;28;20206;-75
2021/07/11 03:05:31;;;;;;;5.78;5.07;;;17.40;99.90;;;;;;5072218;28;20591;-74
2021/07/11 03:07:58;;;;;;;5.53;4.95;;;17.50;99.90;;;;;;5071602;28;20205;-75
2021/07/11 03:10:27;;;;;;;6.30;5.47;;;17.50;99.90;;;;;;5071219;28;20236;-75
2021/07/11 03:12:56;;;;;;;5.18;4.68;;;17.40;99.90;;;;;;5071286;28;20204;-75
2021/07/11 03:15:23;;;;;;;6.63;4.53;;;17.50;99.90;;;;;;5071454;28;20275;-74
2021/07/11 03:17:51;;;;;;;5.53;5.03;;;17.50;99.90;;;;;;5071378;28;20233;-73
2021/07/11 03:20:19;;;;;;;5.95;5.45;;;17.50;99.90;;;;;;5070774;28;20206;-73
2021/07/11 03:22:46;;;;;;;6.10;5.50;;;17.30;99.90;;;;;;5071228;28;20260;-73
2021/07/11 03:25:14;;;;;;;5.60;5.07;;;17.20;99.90;;;;;;5071032;28;20279;-73
2021/07/11 03:27:43;;;;;;;5.00;4.60;;;17.20;99.90;;;;;;5071566;28;20266;-73
2021/07/11 03:30:13;;;;;;;6.22;4.75;;;17.30;99.90;;;;;;5070798;28;20640;-72
2021/07/11 03:32:43;;;;;;;6.28;4.43;;;17.30;99.90;;;;;;5071506;28;20222;-73
2021/07/11 03:35:12;;;;;;;7.50;5.75;;;17.30;99.90;;;;;;5070600;28;20198;-72
2021/07/11 03:37:42;;;;;;;6.70;5.18;;;17.40;99.90;;;;;;5071336;28;20230;-73
2021/07/11 03:40:10;;;;;;;5.72;5.22;;;17.30;99.90;;;;;;5070670;28;20290;-72
2021/07/11 03:42:41;;;;;;;6.65;5.93;;;17.30;99.90;;;;;;5071424;28;20210;-72
2021/07/11 03:45:12;;;;;;;6.78;5.40;;;17.30;99.90;;;;;;5070562;28;20259;-71
2021/07/11 03:47:44;;;;;;;7.28;5.90;;;17.30;99.90;;;;;;5071211;28;20202;-72
2021/07/11 03:50:13;;;;;;;9.95;6.05;;;17.20;99.90;;;;;;5070073;28;20248;-74
2021/07/11 03:52:46;;;;;;;7.35;5.82;;;17.20;99.90;;;;;;5071183;28;20264;-74
2021/07/11 03:55:18;;;;;;;6.43;5.70;;;17.20;99.90;;;;;;5070292;28;20268;-77
2021/07/11 03:57:51;;;;;;;6.28;5.72;;;17.20;99.90;;;;;;5070544;28;20253;-77
2021/07/11 04:00:21;;;;;;;6.47;4.90;;;17.10;99.90;;;;;;5070317;28;20230;-75
2021/07/11 04:02:51;;;;;;;5.43;4.95;;;17.10;99.90;;;;;;5070142;28;20202;-76
2021/07/11 04:05:20;;;;;;;6.57;5.97;;;17.10;99.90;;;;;;5070374;28;20670;-76
2021/07/11 04:07:51;;;;;;;5.85;5.25;;;17.00;99.90;;;;;;5071280;28;20206;-76
2021/07/11 04:10:21;;;;;;;6.32;5.72;;;16.90;99.90;;;;;;5070408;28;20255;-75
2021/07/11 04:12:48;;;;;;;6.28;5.68;;;16.90;99.90;;;;;;5070245;28;20248;-75
2021/07/11 04:15:16;;;;;;;6.90;6.30;;;17.00;99.90;;;;;;5070155;28;20673;-75
2021/07/11 04:17:48;;;;;;;6.05;5.45;;;17.00;99.90;;;;;;5070248;28;20279;-76
2021/07/11 04:20:17;;;;;;;6.32;5.28;;;17.00;99.90;;;;;;5070323;28;20206;-76
2021/07/11 04:22:47;;;;;;;5.95;5.35;;;17.00;99.90;;;;;;5070444;28;20259;-76
2021/07/11 04:25:16;;;;;;;13.63;5.95;;;17.00;99.90;;;;;;5070100;28;20210;-75
2021/07/11 04:27:44;;;;;;;6.57;5.78;;;16.90;99.90;;;;;;5070201;28;20272;-76
2021/07/11 04:30:11;;;;;;;6.88;6.30;;;16.90;99.90;;;;;;5070362;28;20210;-75
2021/07/11 04:32:38;;;;;;;8.25;5.18;;;16.90;99.90;;;;;;5070210;28;20255;-75
2021/07/11 04:35:08;;;;;;;7.00;6.40;;;16.90;99.90;;;;;;5070450;28;20662;-74
2021/07/11 04:37:35;;;;;;;6.50;5.90;;;17.00;99.90;;;;;;5070292;28;20229;-75
2021/07/11 04:40:02;;;;;;;5.68;5.10;;;16.90;99.90;;;;;;5070256;28;20723;-75
2021/07/11 04:42:29;;;;;;;8.57;5.90;;;17.00;99.90;;;;;;5070528;28;20210;-75
2021/07/11 04:44:56;;;;;;;6.72;5.28;;;16.90;99.90;;;;;;5070176;28;20202;-77
2021/07/11 04:47:23;;;;;;;5.32;4.82;;;17.00;99.90;;;;;;5069650;28;21125;-75
2021/07/11 04:49:50;;;;;;;8.35;6.28;;;17.00;99.90;;;;;;5070200;28;20209;-75
2021/07/11 04:52:19;;;;;;;6.75;6.05;;;17.00;99.90;;;;;;5069456;28;20640;-75
2021/07/11 04:54:46;;;;;;;6.60;5.93;;;17.00;99.90;;;;;;5070209;28;20255;-74
2021/07/11 04:57:13;;;;;;;9.00;7.13;;;17.00;99.90;;;;;;5069629;28;20272;-75
2021/07/11 04:59:40;;;;;;;7.00;6.40;;;17.00;99.90;;;;;;5070036;28;20252;-75
2021/07/11 05:02:07;;;;;;;6.60;6.00;;;17.00;99.90;;;;;;5069491;28;20209;-75
2021/07/11 05:04:34;;;;;;;6.95;6.35;;;17.10;99.90;;;;;;5070232;28;20275;-74
2021/07/11 05:07:01;;;;;;;7.53;6.82;;;17.10;99.90;;;;;;5070477;28;20209;-74
2021/07/11 05:09:29;;;;;;;7.35;5.60;;;17.00;99.90;;;;;;5070017;28;20203;-74
2021/07/11 05:11:56;;;;;;;6.45;5.82;;;17.10;99.90;;;;;;5070127;28;20570;-74
2021/07/11 05:14:23;;;;;;;5.70;5.10;;;17.10;99.90;;;;;;5069510;28;20206;-74
2021/07/11 05:16:50;;;;;;;6.10;5.50;;;17.10;99.90;;;;;;5072768;28;20259;-73
2021/07/11 05:19:17;;;;;;;7.97;5.97;;;17.20;99.90;;;;;;5073521;28;20210;-73
2021/07/11 05:21:44;;;;;;;7.47;5.95;;;17.20;99.90;;;;;;5073591;28;20211;-73
2021/07/11 05:24:11;;;;;;;6.85;5.97;;;17.20;99.90;;;;;;5072983;28;20210;-74
2021/07/11 05:26:39;;;;;;;6.95;6.18;;;17.30;99.90;;;;;;5073590;28;20251;-74
2021/07/11 05:29:06;;;;;;;6.20;5.60;;;17.40;99.90;;;;;;5073262;28;20261;-75
2021/07/11 05:31:33;;;;;;;7.75;7.03;;;17.40;99.90;;;;;;5073631;28;20213;-75
2021/07/11 05:34:00;;;;;;;6.20;5.63;;;17.50;99.90;;;;;;5073674;28;20236;-75
2021/07/11 05:36:27;;;;;;;6.88;6.28;;;17.50;99.90;;;;;;5073091;28;20202;-75
2021/07/11 05:38:54;;;;;;;6.93;6.32;;;17.60;99.90;;;;;;5073567;28;20297;-75
2021/07/11 05:41:21;;;;;;;7.28;6.50;;;17.70;99.90;;;;;;5073081;28;20206;-73
2021/07/11 05:43:49;;;;;;;7.25;6.20;;;17.70;99.90;;;;;;5073415;28;20255;-75
2021/07/11 05:46:16;;;;;;;7.03;5.53;;;17.70;99.90;;;;;;5072801;28;20253;-74
2021/07/11 05:48:43;;;;;;;8.70;6.05;;;17.70;99.90;;;;;;5073157;28;20222;-73
2021/07/11 05:51:10;;;;;;;9.02;6.43;;;17.80;99.90;;;;;;5073059;28;20205;-74
2021/07/11 05:53:37;;;;;;;6.38;5.88;;;17.80;99.90;;;;;;5072974;28;20206;-75
2021/07/11 05:56:05;;;;;;;6.82;5.40;;;17.90;99.90;;;;;;5073465;28;20260;-73
2021/07/11 05:58:32;;;;;;;5.93;5.43;;;18.00;99.90;;;;;;5073433;28;20291;-74
2021/07/11 06:01:00;;;;;;;6.80;5.63;;;18.00;99.90;;;;;;5059802;28;20202;-73
2021/07/11 06:03:28;;;;;;;8.10;7.38;;;18.10;99.90;;;;;;5072572;28;20206;-73
2021/07/11 06:05:55;;;;;;;7.10;6.40;;;18.10;99.90;;;;;;5074245;28;20240;-74
2021/07/11 06:08:22;;;;;;;8.73;6.25;;;18.10;99.90;;;;;;5073825;28;20666;-73
2021/07/11 06:10:53;;;;;;;6.15;5.65;;;18.10;99.90;;;;;;5073441;28;20658;-74
2021/07/11 06:13:20;;;;;;;6.93;6.32;;;18.20;99.90;;;;;;5072169;28;20202;-73
2021/07/11 06:15:47;;;;;;;6.70;5.97;;;18.30;99.90;;;;;;5072729;28;20260;-74
2021/07/11 06:18:15;;;;;;;10.77;7.57;;;18.40;99.90;;;;;;5071423;28;20299;-74
2021/07/11 06:20:43;;;;;;;7.30;6.30;;;18.40;99.90;;;;;;5072218;28;20206;-74
2021/07/11 06:23:10;;;;;;;7.28;6.57;;;18.20;99.90;;;;;;5070938;28;20681;-72
2021/07/11 06:25:38;;;;;;;6.70;6.10;;;18.30;99.90;;;;;;5071652;28;20217;-73
2021/07/11 06:28:06;;;;;;;7.43;6.72;;;18.40;99.90;;;;;;5072669;28;20210;-72
2021/07/11 06:30:33;;;;;;;9.38;6.38;;;18.60;99.90;;;;;;5076269;28;20205;-72
2021/07/11 06:33:00;;;;;;;6.22;5.63;;;18.80;99.90;;;;;;5072399;28;20264;-72
2021/07/11 06:35:28;;;;;;;6.47;5.88;;;18.90;99.90;;;;;;5071933;28;20256;-71
2021/07/11 06:37:55;;;;;;;8.80;6.25;;;19.10;99.90;;;;;;5072150;28;20275;-72
2021/07/11 06:40:24;;;;;;;7.35;6.28;;;19.20;99.90;;;;;;5071964;28;20252;-72
2021/07/11 06:42:51;;;;;;;8.23;6.68;;;19.10;99.90;;;;;;5070765;28;20253;-73
2021/07/11 06:45:19;;;;;;;7.20;6.53;;;19.20;99.90;;;;;;5079738;28;20217;-72
2021/07/11 06:47:46;;;;;;;6.32;5.72;;;19.30;99.90;;;;;;5079791;28;20205;-72
2021/07/11 06:50:16;;;;;;;6.35;5.40;;;19.30;99.90;;;;;;5076436;28;20235;-71
2021/07/11 06:52:47;;;;;;;7.30;5.75;;;19.50;99.90;;;;;;5080878;28;20205;-72
2021/07/11 06:55:15;;;;;;;7.85;6.20;;;19.70;99.90;;;;;;5072935;28;20239;-73
2021/07/11 06:57:43;;;;;;;6.80;6.15;;;19.80;99.90;;;;;;5078218;28;20225;-73
2021/07/11 07:00:12;;;;;;;7.35;6.70;;;20.00;99.90;;;;;;5083529;28;20623;-73
2021/07/11 07:02:39;;;;;;;7.13;6.53;;;20.10;99.90;;;;;;5067769;28;20213;-71
2021/07/11 07:05:08;;;;;;;6.60;5.97;;;20.10;99.90;;;;;;5062382;28;20210;-74
2021/07/11 07:07:36;;;;;;;9.00;6.15;;;20.20;99.90;;;;;;5071847;28;20267;-74
2021/07/11 07:10:05;;;;;;;7.38;5.85;;;20.40;99.90;;;;;;5076942;28;20212;-79
2021/07/11 07:12:32;;;;;;;7.07;5.32;;;20.60;99.90;;;;;;5081169;28;20198;-76
2021/07/11 07:14:59;;;;;;;4.57;4.05;;;20.80;99.90;;;;;;5081645;28;20256;-75
2021/07/11 07:17:26;;;;;;;8.10;4.03;;;21.00;99.90;;;;;;5082940;28;20286;-76
2021/07/11 07:19:53;;;;;;;5.00;4.50;;;21.00;99.90;;;;;;5080714;28;20621;-74
2021/07/11 07:22:20;;;;;;;4.55;4.15;;;20.80;99.90;;;;;;5076953;28;20633;-75
2021/07/11 07:24:47;;;;;;;8.75;4.57;;;20.80;99.90;;;;;;5080554;28;20207;-74
2021/07/11 07:27:15;;;;;;;5.15;4.45;;;20.90;99.90;;;;;;5085873;28;20668;-76
2021/07/11 07:29:42;;;;;;;5.72;4.35;;;20.90;99.90;;;;;;5082596;28;20232;-74
2021/07/11 07:32:09;;;;;;;5.28;4.30;;;21.10;99.90;;;;;;5087003;28;20267;-76
2021/07/11 07:34:37;;;;;;;3.95;3.58;;;21.10;99.90;;;;;;5073847;28;20584;-75
2021/07/11 07:37:05;;;;;;;5.35;4.85;;;21.00;99.90;;;;;;5070832;28;20259;-73
2021/07/11 07:39:32;;;;;;;5.07;4.68;;;21.20;99.90;;;;;;5070656;28;20624;-73
2021/07/11 07:41:59;;;;;;;4.18;3.78;;;21.20;99.90;;;;;;5069975;28;20243;-73
2021/07/11 07:44:27;;;;;;;5.35;4.85;;;21.40;99.90;;;;;;5074900;28;21185;-74
2021/07/11 07:46:54;;;;;;;6.28;4.70;;;21.60;99.90;;;;;;5077535;28;20252;-73
2021/07/11 07:49:21;;;;;;;3.88;3.58;;;21.90;99.90;;;;;;5079906;28;20213;-74
2021/07/11 07:51:48;;;;;;;4.63;3.75;;;22.10;99.90;;;;;;5077086;28;20202;-75
2021/07/11 07:54:15;;;;;;;4.07;3.78;;;22.10;99.90;;;;;;5075420;28;20268;-75
2021/07/11 07:56:42;;;;;;;5.38;3.30;;;22.20;99.90;;;;;;5076568;28;20264;-75
2021/07/11 07:59:09;;;;;;;4.90;3.83;;;22.60;99.90;;;;;;5070349;28;20287;-76
2021/07/11 08:01:38;;;;;;;4.35;4.05;;;23.00;99.90;;;;;;5070551;28;20276;-75
2021/07/11 08:04:07;;;;;;;3.22;2.92;;;23.40;99.90;;;;;;5070578;28;20654;-75
2021/07/11 08:06:34;;;;;;;3.50;3.20;;;23.50;99.90;;;;;;5071067;28;20206;-74
2021/07/11 08:09:01;;;;;;;3.38;3.10;;;23.60;99.90;;;;;;5070690;28;20263;-73
2021/07/11 08:11:28;;;;;;;3.30;3.00;;;23.80;99.90;;;;;;5069476;28;20203;-75
2021/07/11 08:13:55;;;;;;;3.47;3.17;;;24.00;99.90;;;;;;5068175;28;20210;-74
2021/07/11 08:16:22;;;;;;;3.75;3.03;;;24.60;99.90;;;;;;5074370;28;20202;-75
2021/07/11 08:18:51;;;;;;;3.25;3.05;;;26.30;99.90;;;;;;5078251;28;20650;-75
2021/07/11 08:21:18;;;;;;;3.10;2.90;;;26.40;99.90;;;;;;5086917;28;20270;-79
2021/07/11 08:23:45;;;;;;;4.80;3.42;;;25.60;99.90;;;;;;5089914;28;20258;-74
2021/07/11 08:26:12;;;;;;;4.57;3.40;;;24.80;99.90;;;;;;5083899;28;20210;-71
2021/07/11 08:28:39;;;;;;;3.40;3.10;;;24.40;99.90;;;;;;5080626;28;20208;-76
2021/07/11 08:31:06;;;;;;;3.58;3.20;;;24.20;99.90;;;;;;5070803;28;20214;-73
2021/07/11 08:33:33;;;;;;;2.63;2.42;;;24.00;99.90;;;;;;5069752;28;20210;-75
2021/07/11 08:36:02;;;;;;;3.10;2.75;;;23.80;99.90;;;;;;5072288;28;20210;-74
2021/07/11 08:38:29;;;;;;;3.28;2.83;;;23.70;99.90;;;;;;5070837;28;20708;-73
2021/07/11 08:40:56;;;;;;;3.03;2.78;;;23.80;99.90;;;;;;5070435;28;20210;-75
2021/07/11 08:43:24;;;;;;;3.28;2.97;;;24.00;99.90;;;;;;5069723;28;20206;-74
2021/07/11 08:45:51;;;;;;;3.47;3.17;;;24.20;99.90;;;;;;5070402;28;20259;-72
2021/07/11 08:48:18;;;;;;;2.67;2.47;;;24.80;99.90;;;;;;5069793;28;20210;-75
2021/07/11 08:50:45;;;;;;;4.57;3.15;;;25.60;99.90;;;;;;5073755;28;20289;-71
2021/07/11 08:53:16;;;;;;;3.55;3.25;;;25.30;99.90;;;;;;5073708;28;20559;-72
2021/07/11 08:55:44;;;;;;;3.25;3.00;;;24.90;99.90;;;;;;5074418;28;20620;-75
2021/07/11 08:58:13;;;;;;;3.33;3.10;;;24.80;99.90;;;;;;5073794;28;20279;-78
2021/07/11 09:00:42;;;;;;;3.72;3.03;;;25.00;99.90;;;;;;5074042;28;20198;-74
2021/07/11 09:03:09;;;;;;;4.13;3.47;;;25.30;99.90;;;;;;5073990;28;20727;-77
2021/07/11 09:05:40;;;;;;;2.95;2.75;;;25.30;99.90;;;;;;5074171;28;20286;-71
2021/07/11 09:08:11;;;;;;;2.70;2.50;;;25.40;99.90;;;;;;5073555;28;20209;-69
2021/07/11 09:10:42;;;;;;;3.00;2.75;;;25.30;99.90;;;;;;5073720;28;20255;-74
2021/07/11 09:13:14;;;;;;;2.70;2.50;;;25.30;99.90;;;;;;5071482;28;20225;-75
2021/07/11 09:15:44;;;;;;;4.25;3.05;;;25.40;99.90;;;;;;5072719;28;20202;-74
2021/07/11 09:18:11;;;;;;;3.00;2.80;;;25.80;99.90;;;;;;5071983;28;20655;-77
2021/07/11 09:20:53;;;;;;;8.10;2.53;;;26.00;99.90;;;;;;5073871;28;20206;-73
2021/07/11 09:23:20;;;;;;;2.60;2.40;;;25.90;99.90;;;;;;5063978;28;20214;-74
2021/07/11 09:26:01;;;;;;;3.35;3.05;;;26.10;99.90;;;;;;5073276;28;20249;-73
2021/07/11 09:28:29;;;;;;;2.90;2.63;;;26.20;99.90;;;;;;5073357;28;20240;-76
2021/07/11 09:31:09;;;;;;;2.53;2.40;;;26.60;99.90;;;;;;5073471;28;20255;-74
2021/07/11 09:33:38;;;;;;;3.95;2.88;;;26.40;99.90;;;;;;5073419;28;20682;-74
2021/07/11 09:36:07;;;;;;;3.15;2.55;;;27.00;99.90;;;;;;5072560;28;20807;-75
2021/07/11 09:38:35;;;;;;;3.55;2.90;;;26.90;99.90;;;;;;5073550;28;20288;-70
2021/07/11 09:41:20;;;;;;;2.70;2.45;;;26.80;99.90;;;;;;5070233;28;20670;-74
2021/07/11 09:43:47;;;;;;;3.15;2.85;;;27.20;99.90;;;;;;5076556;28;20668;-76
2021/07/11 09:46:15;;;;;;;3.42;2.92;;;26.90;99.90;;;;;;5086350;28;20643;-73
2021/07/11 09:48:43;;;;;;;2.45;2.33;;;27.10;99.90;;;;;;5074967;28;20259;-74
2021/07/11 09:51:17;;;;;;;3.15;2.75;;;27.00;99.90;;;;;;5086595;28;20213;-72
2021/07/11 09:53:44;;;;;;;3.35;3.10;;;27.80;99.90;;;;;;5083563;28;20197;-72
2021/07/11 09:56:30;;;;;;;3.08;2.80;;;30.80;99.90;;;;;;5073023;28;20331;-74
2021/07/11 09:58:57;;;;;;;3.03;2.70;;;31.90;99.90;;;;;;5074050;28;20225;-71
2021/07/11 10:01:25;;;;;;;3.47;3.25;;;33.90;99.90;;;;;;5072944;28;20209;-72
2021/07/11 10:03:52;;;;;;;2.58;2.38;;;34.90;99.90;;;;;;5076020;28;20201;-74
2021/07/11 10:06:19;;;;;;;3.28;2.95;;;35.00;99.90;;;;;;5072497;28;20205;-73
2021/07/11 10:08:46;;;;;;;3.20;3.00;;;34.70;99.90;;;;;;5074830;28;20206;-74
2021/07/11 10:11:13;;;;;;;2.85;2.65;;;36.70;99.90;;;;;;5072113;28;20247;-74
2021/07/11 10:13:41;;;;;;;3.72;3.42;;;36.20;99.90;;;;;;5072259;28;20267;-74
2021/07/11 10:16:10;;;;;;;2.85;2.65;;;37.10;99.90;;;;;;5072411;28;20252;-71
2021/07/11 10:18:39;;;;;;;3.13;2.92;;;33.50;99.90;;;;;;5072790;28;20278;-74
2021/07/11 10:21:07;;;;;;;3.42;2.08;;;34.80;99.90;;;;;;5072401;28;20253;-72
2021/07/11 10:23:37;;;;;;;2.85;2.65;;;35.50;99.90;;;;;;5072910;28;20206;-73
2021/07/11 10:26:07;;;;;;;2.88;2.67;;;36.10;99.90;;;;;;5072583;28;20224;-74
2021/07/11 10:28:36;;;;;;;3.05;2.88;;;37.10;99.90;;;;;;5072889;28;20209;-73
2021/07/11 10:31:06;;;;;;;2.85;2.65;;;36.20;99.90;;;;;;5072511;28;20738;-74
2021/07/11 10:33:44;;;;;;;3.72;3.42;;;34.50;99.90;;;;;;5072819;28;20665;-74
2021/07/11 10:36:12;;;;;;;2.95;2.75;;;35.10;99.90;;;;;;5071482;28;20205;-74
2021/07/11 10:38:40;;;;;;;2.60;2.40;;;36.10;99.90;;;;;;5072581;28;20229;-74
2021/07/11 10:41:12;;;;;;;3.28;3.05;;;32.20;99.90;;;;;;5071951;28;20212;-74
2021/07/11 10:43:40;;;;;;;2.58;2.42;;;29.50;99.90;;;;;;5072499;28;20338;-73
2021/07/11 10:46:08;;;;;;;2.80;2.50;;;28.10;99.90;;;;;;5072087;28;20213;-74
2021/07/11 10:48:36;;;;;;;3.47;3.28;;;27.90;99.90;;;;;;5071850;28;20560;-72
2021/07/11 10:51:03;;;;;;;3.00;2.80;;;27.40;99.90;;;;;;5072464;28;20263;-73
2021/07/11 10:53:35;;;;;;;2.83;2.63;;;27.50;99.90;;;;;;5071770;28;20202;-74
2021/07/11 10:56:03;;;;;;;2.80;2.58;;;28.00;99.90;;;;;;5072686;28;20201;-74
2021/07/11 10:58:39;;;;;;;3.33;3.05;;;27.80;99.90;;;;;;5071544;28;20230;-74
2021/07/11 11:01:18;;;;;;;3.20;2.80;;;27.70;99.90;;;;;;5066192;28;20232;-74
2021/07/11 11:03:52;;;;;;;3.30;3.00;;;27.60;99.90;;;;;;5068067;28;20202;-73
2021/07/11 11:06:19;;;;;;;3.45;3.15;;;27.70;99.90;;;;;;5071441;28;20217;-74
2021/07/11 11:08:47;;;;;;;3.72;3.45;;;27.90;99.90;;;;;;5071888;28;20214;-75
2021/07/11 11:11:14;;;;;;;6.05;5.45;;;28.10;99.90;;;;;;5071578;28;20202;-73
2021/07/11 11:13:41;;;;;;;3.25;3.05;;;28.10;99.90;;;;;;5071361;28;20210;-73
2021/07/11 11:16:18;;;;;;;3.00;2.80;;;28.00;99.90;;;;;;5071251;28;20555;-73
2021/07/11 11:18:51;;;;;;;3.35;3.10;;;28.00;99.90;;;;;;5071657;28;20230;-73
2021/07/11 11:21:20;;;;;;;2.80;2.60;;;28.20;99.90;;;;;;5071304;28;20202;-74
2021/07/11 11:23:48;;;;;;;3.53;3.22;;;28.10;99.90;;;;;;5071663;28;20213;-74
2021/07/11 11:26:19;;;;;;;3.20;2.90;;;28.40;99.90;;;;;;5070202;28;20654;-75
2021/07/11 11:28:47;;;;;;;2.90;2.65;;;28.20;99.90;;;;;;5062494;28;20210;-74
2021/07/11 11:31:19;;;;;;;3.17;2.88;;;28.30;99.90;;;;;;5071109;28;20203;-74
2021/07/11 11:33:51;;;;;;;3.03;2.83;;;27.70;99.90;;;;;;5080067;28;20198;-73
2021/07/11 11:36:20;;;;;;;3.75;3.45;;;27.80;99.90;;;;;;5075925;28;20271;-74
2021/07/11 11:38:47;;;;;;;3.90;3.50;;;28.20;99.90;;;;;;5076368;28;20267;-74
2021/07/11 11:41:16;;;;;;;3.55;3.25;;;28.50;99.90;;;;;;5074638;28;20259;-74
2021/07/11 11:43:43;;;;;;;3.78;2.83;;;28.10;99.90;;;;;;5078624;28;20223;-74
2021/07/11 11:46:10;;;;;;;2.42;2.22;;;28.10;99.90;;;;;;5074066;28;20677;-73
2021/07/11 11:48:39;;;;;;;4.38;3.22;;;28.40;99.90;;;;;;5080508;28;20202;-74
2021/07/11 11:51:07;;;;;;;3.20;3.00;;;28.60;99.90;;;;;;5090426;28;20198;-73
2021/07/11 11:53:44;;;;;;;3.40;3.05;;;28.40;99.90;;;;;;5071746;28;20210;-76
2021/07/11 11:56:14;;;;;;;3.85;3.08;;;28.20;99.90;;;;;;5070779;28;20216;-75
2021/07/11 11:58:41;;;;;;;4.22;3.67;;;28.60;99.90;;;;;;5070783;28;20234;-75
2021/07/11 12:01:11;;;;;;;4.55;2.40;;;28.50;99.90;;;;;;5070301;28;20631;-76
2021/07/11 12:03:41;;;;;;;3.10;2.80;;;28.80;99.90;;;;;;5070626;28;20209;-75
2021/07/11 12:06:10;;;;;;;3.15;2.95;;;28.30;99.90;;;;;;5070783;28;20259;-75
2021/07/11 12:08:38;;;;;;;3.70;3.40;;;28.20;99.90;;;;;;5071055;28;20264;-75
2021/07/11 12:11:07;;;;;;;2.60;2.35;;;28.80;99.90;;;;;;5069948;28;20206;-75
2021/07/11 12:13:35;;;;;;;4.97;2.67;;;28.60;99.90;;;;;;5070150;28;20198;-75
2021/07/11 12:16:07;;;;;;;3.42;3.13;;;28.70;99.90;;;;;;5071476;28;20207;-74
2021/07/11 12:18:46;;;;;;;4.03;3.67;;;28.20;99.90;;;;;;5070864;28;20202;-75
2021/07/11 12:21:19;;;;;;;2.72;2.53;;;28.50;99.90;;;;;;5075120;28;20206;-75
2021/07/11 12:23:57;;;;;;;3.72;3.08;;;29.00;99.90;;;;;;5070091;28;20198;-75
2021/07/11 12:26:25;;;;;;;3.55;3.35;;;29.10;99.90;;;;;;5069832;28;20255;-75
2021/07/11 12:28:53;;;;;;;2.75;2.55;;;29.20;99.90;;;;;;5070438;28;20316;-75
2021/07/11 12:31:21;;;;;;;3.97;3.03;;;29.30;99.90;;;;;;5068974;28;20210;-74
2021/07/11 12:33:56;;;;;;;6.13;2.55;;;29.00;99.90;;;;;;5070356;28;20206;-75
2021/07/11 12:36:23;;;;;;;6.32;2.85;;;28.90;99.90;;;;;;5069138;28;20195;-75
2021/07/11 12:38:50;;;;;;;2.72;2.53;;;29.00;99.90;;;;;;5070446;28;20279;-74
2021/07/11 12:41:17;;;;;;;3.47;3.17;;;29.20;99.90;;;;;;5069437;28;20206;-75
2021/07/11 12:43:49;;;;;;;3.15;2.22;;;29.40;99.90;;;;;;5070387;28;20255;-73
2021/07/11 12:46:17;;;;;;;2.90;2.70;;;29.30;99.90;;;;;;5069461;28;20630;-72
2021/07/11 12:48:47;;;;;;;3.88;3.08;;;28.90;99.90;;;;;;5068594;28;20202;-73
2021/07/11 12:51:19;;;;;;;3.75;3.38;;;28.80;99.90;;;;;;5072749;28;20252;-72
2021/07/11 12:53:47;;;;;;;3.13;2.83;;;28.90;99.90;;;;;;5069955;28;20202;-73